createdAt,value
2022-12-03T00:01:18.547Z,7.90
2022-12-03T00:04:04.663Z,7.70
2022-12-03T00:06:50.754Z,7.70
2022-12-03T00:09:36.655Z,7.60
2022-12-03T00:12:22.470Z,7.50
2022-12-03T00:15:09.401Z,7.50
2022-12-03T00:17:55.154Z,7.40
2022-12-03T00:20:40.807Z,7.40
2022-12-03T00:23:26.600Z,7.50
2022-12-03T00:26:12.092Z,7.40
2022-12-03T00:28:57.961Z,7.40
2022-12-03T00:31:45.581Z,7.50
2022-12-03T00:34:31.387Z,7.40
2022-12-03T00:37:17.295Z,7.50
2022-12-03T00:40:05.251Z,7.50
2022-12-03T00:42:51.032Z,7.50
2022-12-03T00:45:37.018Z,7.40
2022-12-03T00:48:22.838Z,7.40
2022-12-03T00:51:08.472Z,7.30
2022-12-03T00:53:54.486Z,7.40
2022-12-03T00:56:40.023Z,7.30
2022-12-03T00:59:25.656Z,7.30
2022-12-03T01:02:11.550Z,7.30
2022-12-03T01:04:57.564Z,7.20
2022-12-03T01:07:43.892Z,7.30
2022-12-03T01:10:29.917Z,7.20
2022-12-03T01:13:15.960Z,7.20
2022-12-03T01:16:01.385Z,7.30
2022-12-03T01:18:47.451Z,7.40
2022-12-03T01:21:33.473Z,8.60
2022-12-03T01:24:20.177Z,7.50
2022-12-03T01:27:08.071Z,7.40
2022-12-03T01:29:53.468Z,7.40
2022-12-03T01:32:39.497Z,7.40
2022-12-03T01:35:24.933Z,7.50
2022-12-03T01:38:10.431Z,7.50
2022-12-03T01:40:56.326Z,7.40
2022-12-03T01:43:42.095Z,7.40
2022-12-03T01:46:37.309Z,7.40
2022-12-03T01:49:53.120Z,7.40
2022-12-03T01:52:38.970Z,7.40
2022-12-03T01:55:26.297Z,7.40
2022-12-03T01:58:15.371Z,7.50
2022-12-03T02:01:06.861Z,7.60
2022-12-03T02:03:52.630Z,7.60
2022-12-03T02:06:38.742Z,7.60
2022-12-03T02:09:24.504Z,7.60
2022-12-03T02:12:10.341Z,7.50
2022-12-03T02:14:56.883Z,7.60
2022-12-03T02:17:43.201Z,7.60
2022-12-03T02:20:33.309Z,7.60
2022-12-03T02:23:30.953Z,7.60
2022-12-03T02:26:16.612Z,7.60
2022-12-03T02:29:02.565Z,7.70
2022-12-03T02:31:48.267Z,7.70
2022-12-03T02:34:45.491Z,7.60
2022-12-03T02:37:34.062Z,7.60
2022-12-03T02:40:24.151Z,7.60
2022-12-03T02:43:10.627Z,7.60
2022-12-03T02:45:59.932Z,7.50
2022-12-03T02:48:45.728Z,7.60
2022-12-03T02:51:31.719Z,7.50
2022-12-03T02:54:17.238Z,7.50
2022-12-03T02:57:03.003Z,7.60
2022-12-03T02:59:48.932Z,7.60
2022-12-03T03:02:36.613Z,7.60
2022-12-03T03:05:24.016Z,7.60
2022-12-03T03:08:10.581Z,7.60
2022-12-03T03:10:57.392Z,7.60
2022-12-03T03:13:43.574Z,7.60
2022-12-03T03:16:29.671Z,7.60
2022-12-03T03:19:15.308Z,7.60
2022-12-03T03:22:00.973Z,7.50
2022-12-03T03:24:46.484Z,7.50
2022-12-03T03:27:33.218Z,7.50
2022-12-03T03:30:18.817Z,7.50
2022-12-03T03:33:04.892Z,7.40
2022-12-03T03:35:51.382Z,7.50
2022-12-03T03:38:38.207Z,7.50
2022-12-03T03:41:26.680Z,7.50
2022-12-03T03:44:14.098Z,7.50
2022-12-03T03:47:00.446Z,7.60
2022-12-03T03:49:47.894Z,7.60
2022-12-03T03:52:34.398Z,7.70
2022-12-03T03:55:20.596Z,7.60
2022-12-03T03:58:06.190Z,7.70
2022-12-03T04:00:52.022Z,7.70
2022-12-03T04:03:37.511Z,7.60
2022-12-03T04:06:23.280Z,7.50
2022-12-03T04:09:09.386Z,7.60
2022-12-03T04:12:13.475Z,7.50
2022-12-03T04:14:59.615Z,7.50
2022-12-03T04:17:45.511Z,7.50
2022-12-03T04:20:31.299Z,7.50
2022-12-03T04:23:17.318Z,7.50
2022-12-03T04:26:21.536Z,7.40
2022-12-03T04:29:06.903Z,7.40
2022-12-03T04:32:10.732Z,7.40
2022-12-03T04:35:16.200Z,7.40
2022-12-03T04:38:02.784Z,7.40
2022-12-03T04:41:06.196Z,7.30
2022-12-03T04:44:10.662Z,7.40
2022-12-03T04:46:56.168Z,7.40
2022-12-03T04:49:44.707Z,7.40
2022-12-03T04:52:30.544Z,7.40
2022-12-03T04:55:17.780Z,7.40
2022-12-03T04:58:04.020Z,7.40
2022-12-03T05:00:49.776Z,7.40
2022-12-03T05:03:35.841Z,7.40
2022-12-03T05:06:21.449Z,7.40
2022-12-03T05:09:06.979Z,7.30
2022-12-03T05:11:52.807Z,7.40
2022-12-03T05:14:38.504Z,7.40
2022-12-03T05:17:24.180Z,7.30
2022-12-03T05:20:28.548Z,7.40
2022-12-03T05:23:14.751Z,7.50
2022-12-03T05:26:00.468Z,7.30
2022-12-03T05:28:45.983Z,7.30
2022-12-03T05:31:31.668Z,7.20
2022-12-03T05:34:17.588Z,7.20
2022-12-03T05:37:03.031Z,7.20
2022-12-03T05:39:48.576Z,7.20
2022-12-03T05:42:52.456Z,7.10
2022-12-03T05:45:41.676Z,7.20
2022-12-03T05:48:27.560Z,7.30
2022-12-03T05:51:13.358Z,7.20
2022-12-03T05:53:58.939Z,7.20
2022-12-03T05:56:44.326Z,7.20
2022-12-03T05:59:30.145Z,7.30
2022-12-03T06:02:15.731Z,7.30
2022-12-03T06:05:01.594Z,7.30
2022-12-03T06:07:48.714Z,7.20
2022-12-03T06:10:34.470Z,7.20
2022-12-03T06:13:20.062Z,7.20
2022-12-03T06:16:06.170Z,7.20
2022-12-03T06:18:52.243Z,7.20
2022-12-03T06:21:38.088Z,7.30
2022-12-03T06:24:23.603Z,7.30
2022-12-03T06:27:09.493Z,7.20
2022-12-03T06:29:55.076Z,7.20
2022-12-03T06:32:41.030Z,7.20
2022-12-03T06:35:26.827Z,7.10
2022-12-03T06:38:12.263Z,7.10
2022-12-03T06:40:58.055Z,7.10
2022-12-03T06:43:43.491Z,7.10
2022-12-03T06:46:29.207Z,7.10
2022-12-03T06:49:15.068Z,7.10
2022-12-03T06:52:01.417Z,7.10
2022-12-03T06:54:46.992Z,7.20
2022-12-03T06:57:32.936Z,7.10
2022-12-03T07:00:18.951Z,7.10
2022-12-03T07:03:04.838Z,7.10
2022-12-03T07:05:50.673Z,7.10
2022-12-03T07:08:36.133Z,7.10
2022-12-03T07:11:33.468Z,7.00
2022-12-03T07:14:18.921Z,7.00
2022-12-03T07:17:04.336Z,7.00
2022-12-03T07:19:50.601Z,7.10
2022-12-03T07:22:36.509Z,7.00
2022-12-03T07:25:23.764Z,7.10
2022-12-03T07:28:09.679Z,7.10
2022-12-03T07:30:55.250Z,7.10
2022-12-03T07:33:40.857Z,7.10
2022-12-03T07:36:27.498Z,7.20
2022-12-03T07:39:13.608Z,7.20
2022-12-03T07:41:59.195Z,7.30
2022-12-03T07:44:45.021Z,7.30
2022-12-03T07:47:30.937Z,7.30
2022-12-03T07:50:16.968Z,7.30
2022-12-03T07:53:02.646Z,7.30
2022-12-03T07:55:48.379Z,7.30
2022-12-03T07:58:34.124Z,7.30
2022-12-03T08:01:19.771Z,7.40
2022-12-03T08:04:05.786Z,7.40
2022-12-03T08:06:51.625Z,7.40
2022-12-03T08:09:40.239Z,7.40
2022-12-03T08:12:49.716Z,7.40
2022-12-03T08:15:39.531Z,7.40
2022-12-03T08:18:25.650Z,7.50
2022-12-03T08:21:15.070Z,7.50
2022-12-03T08:24:20.218Z,7.50
2022-12-03T08:27:16.755Z,7.60
2022-12-03T08:30:04.824Z,7.50
2022-12-03T08:32:51.543Z,7.60
2022-12-03T08:35:37.251Z,7.60
2022-12-03T08:38:24.758Z,7.50
2022-12-03T08:41:15.919Z,7.40
2022-12-03T08:44:05.147Z,7.40
2022-12-03T08:46:56.398Z,7.40
2022-12-03T08:49:45.938Z,7.40
2022-12-03T08:52:33.434Z,7.40
2022-12-03T08:55:38.235Z,7.40
2022-12-03T08:58:40.524Z,7.40
2022-12-03T09:01:44.281Z,7.40
2022-12-03T09:04:44.060Z,7.50
2022-12-03T09:07:29.584Z,7.50
2022-12-03T09:10:15.811Z,7.50
2022-12-03T09:13:01.857Z,7.50
2022-12-03T09:15:47.740Z,7.50
2022-12-03T09:18:33.901Z,7.60
2022-12-03T09:21:19.498Z,7.60
2022-12-03T09:24:05.071Z,7.60
2022-12-03T09:26:51.092Z,7.60
2022-12-03T09:29:36.999Z,7.50
2022-12-03T09:32:22.915Z,7.60
2022-12-03T09:35:09.116Z,7.60
2022-12-03T09:37:54.934Z,7.60
2022-12-03T09:40:41.248Z,7.60
2022-12-03T09:44:02.619Z,7.60
2022-12-03T09:46:40.992Z,7.60
2022-12-03T09:49:27.655Z,7.60
2022-12-03T09:52:22.287Z,7.60
2022-12-03T09:55:15.780Z,7.60
2022-12-03T09:58:01.286Z,7.60
2022-12-03T10:00:50.275Z,7.70
2022-12-03T10:03:38.035Z,7.70
2022-12-03T10:06:24.023Z,7.70
2022-12-03T10:09:12.436Z,7.70
2022-12-03T10:11:59.818Z,7.60
2022-12-03T10:14:45.651Z,7.50
2022-12-03T10:17:31.936Z,7.60
2022-12-03T10:20:20.107Z,7.60
2022-12-03T10:23:05.887Z,7.60
2022-12-03T10:25:56.114Z,7.70
2022-12-03T10:28:44.072Z,7.60
2022-12-03T10:31:36.530Z,7.60
2022-12-03T10:34:26.019Z,7.70
2022-12-03T10:37:14.645Z,7.60
2022-12-03T10:40:12.941Z,7.70
2022-12-03T10:43:16.029Z,7.70
2022-12-03T10:46:04.221Z,7.80
2022-12-03T10:49:20.048Z,7.80
2022-12-03T10:52:07.126Z,7.90
2022-12-03T10:54:53.925Z,7.80
2022-12-03T10:57:45.262Z,7.80
2022-12-03T11:00:31.493Z,7.80
2022-12-03T11:03:25.840Z,7.70
2022-12-03T11:06:20.209Z,7.70
2022-12-03T11:09:15.024Z,7.70
2022-12-03T11:12:05.629Z,7.70
2022-12-03T11:14:51.927Z,7.80
2022-12-03T11:17:52.376Z,7.80
2022-12-03T11:20:47.282Z,7.80
2022-12-03T11:23:58.960Z,7.70
2022-12-03T11:26:44.686Z,7.80
2022-12-03T11:29:47.191Z,7.70
2022-12-03T11:32:38.923Z,7.80
2022-12-03T11:35:24.606Z,7.80
2022-12-03T11:38:38.386Z,7.90
2022-12-03T11:41:34.809Z,7.90
2022-12-03T11:44:32.688Z,8.00
2022-12-03T11:47:18.564Z,8.00
2022-12-03T11:50:22.674Z,8.10
2022-12-03T11:53:14.569Z,8.10
2022-12-03T11:56:08.792Z,8.10
2022-12-03T11:59:01.058Z,8.10
2022-12-03T12:01:47.347Z,8.20
2022-12-03T12:04:43.051Z,8.20
2022-12-03T12:07:36.652Z,8.20
2022-12-03T12:10:43.444Z,8.30
2022-12-03T12:13:30.540Z,8.20
2022-12-03T12:16:51.662Z,8.20
2022-12-03T12:19:43.823Z,8.20
2022-12-03T12:22:30.923Z,8.10
2022-12-03T12:25:37.571Z,8.10
2022-12-03T12:28:23.480Z,8.10
2022-12-03T12:31:12.418Z,8.20
2022-12-03T12:33:57.981Z,8.10
2022-12-03T12:36:43.982Z,8.10
2022-12-03T12:39:31.555Z,8.00
2022-12-03T12:42:38.504Z,8.10
2022-12-03T12:45:27.107Z,8.10
2022-12-03T12:48:12.898Z,8.10
2022-12-03T12:50:58.763Z,8.00
2022-12-03T12:53:44.769Z,8.00
2022-12-03T12:56:32.408Z,8.00
2022-12-03T12:59:20.470Z,8.00
2022-12-03T13:02:30.899Z,7.90
2022-12-03T13:05:17.791Z,7.90
2022-12-03T13:08:10.137Z,7.90
2022-12-03T13:10:58.460Z,7.90
2022-12-03T13:13:44.673Z,7.80
2022-12-03T13:16:32.757Z,7.90
2022-12-03T13:19:43.307Z,7.90
2022-12-03T13:22:33.517Z,8.50
2022-12-03T13:26:00.314Z,7.80
2022-12-03T13:28:42.939Z,7.90
2022-12-03T13:31:34.247Z,7.90
2022-12-03T13:34:26.975Z,7.90
2022-12-03T13:37:18.602Z,7.90
2022-12-03T13:40:22.636Z,7.90
2022-12-03T13:43:16.220Z,7.90
2022-12-03T13:46:05.572Z,7.90
2022-12-03T13:48:51.247Z,7.90
2022-12-03T13:51:38.342Z,7.90
2022-12-03T13:54:27.566Z,7.90
2022-12-03T13:57:14.435Z,7.90
2022-12-03T14:00:00.153Z,7.90
2022-12-03T14:02:45.596Z,7.90
2022-12-03T14:05:31.520Z,7.90
2022-12-03T14:08:32.096Z,7.90
2022-12-03T14:11:36.250Z,7.90
2022-12-03T14:14:22.143Z,7.90
2022-12-03T14:17:09.561Z,7.90
2022-12-03T14:19:55.327Z,8.00
2022-12-03T14:22:41.390Z,7.90
2022-12-03T14:25:27.026Z,8.00
2022-12-03T14:28:12.890Z,8.00
2022-12-03T14:30:58.537Z,7.90
2022-12-03T14:33:44.349Z,7.90
2022-12-03T14:36:30.244Z,8.00
2022-12-03T14:39:15.777Z,8.00
2022-12-03T14:42:13.072Z,8.00
2022-12-03T14:44:58.369Z,8.00
2022-12-03T14:47:43.938Z,8.00
2022-12-03T14:50:30.200Z,8.10
2022-12-03T14:53:15.825Z,8.10
2022-12-03T14:56:01.590Z,8.10
2022-12-03T14:58:49.048Z,8.10
2022-12-03T15:01:34.869Z,8.00
2022-12-03T15:04:20.712Z,8.10
2022-12-03T15:07:07.131Z,8.00
2022-12-03T15:09:53.052Z,8.10
2022-12-03T15:12:38.788Z,8.00
2022-12-03T15:15:25.739Z,8.00
2022-12-03T15:18:12.639Z,8.10
2022-12-03T15:20:58.003Z,8.00
2022-12-03T15:23:43.675Z,8.00
2022-12-03T15:26:30.492Z,8.10
2022-12-03T15:29:16.064Z,8.10
2022-12-03T15:32:03.170Z,8.10
2022-12-03T15:34:51.336Z,8.10
2022-12-03T15:37:37.056Z,8.10
2022-12-03T15:40:25.702Z,8.20
2022-12-03T15:43:11.590Z,8.20
2022-12-03T15:45:58.666Z,8.20
2022-12-03T15:48:44.405Z,8.20
2022-12-03T15:51:29.860Z,8.20
2022-12-03T15:54:15.637Z,8.30
2022-12-03T15:57:01.544Z,8.30
2022-12-03T15:59:47.124Z,8.30
2022-12-03T16:02:36.297Z,8.30
2022-12-03T16:05:22.037Z,8.40
2022-12-03T16:08:08.316Z,8.40
2022-12-03T16:10:54.298Z,8.40
2022-12-03T16:13:40.198Z,8.40
2022-12-03T16:16:26.166Z,8.30
2022-12-03T16:19:11.955Z,8.40
2022-12-03T16:21:58.272Z,8.30
2022-12-03T16:24:46.589Z,8.40
2022-12-03T16:27:32.237Z,8.40
2022-12-03T16:30:18.449Z,8.40
2022-12-03T16:33:04.107Z,8.40
2022-12-03T16:35:49.837Z,8.40
2022-12-03T16:38:35.843Z,8.40
2022-12-03T16:41:22.412Z,8.40
2022-12-03T16:44:09.784Z,8.40
2022-12-03T16:46:55.624Z,8.40
2022-12-03T16:49:41.481Z,8.50
2022-12-03T16:52:27.336Z,8.40
2022-12-03T16:55:13.187Z,8.40
2022-12-03T16:57:58.733Z,8.40
2022-12-03T17:00:44.320Z,8.40
2022-12-03T17:03:33.778Z,8.40
2022-12-03T17:06:20.121Z,8.40
2022-12-03T17:09:05.467Z,8.40
2022-12-03T17:11:51.351Z,8.40
2022-12-03T17:14:37.256Z,8.70
2022-12-03T17:17:22.992Z,8.40
2022-12-03T17:20:08.875Z,8.40
2022-12-03T17:22:54.549Z,8.40
2022-12-03T17:25:40.092Z,8.30
2022-12-03T17:28:25.503Z,8.30
2022-12-03T17:31:11.894Z,8.30
2022-12-03T17:33:57.908Z,8.40
2022-12-03T17:36:43.296Z,8.30
2022-12-03T17:39:29.115Z,8.30
2022-12-03T17:42:14.775Z,8.30
2022-12-03T17:45:00.482Z,8.40
2022-12-03T17:47:45.964Z,8.30
2022-12-03T17:50:31.561Z,8.30
2022-12-03T17:53:17.152Z,8.40
2022-12-03T17:56:02.451Z,8.50
2022-12-03T17:58:48.379Z,8.50
2022-12-03T18:01:34.160Z,8.60
2022-12-03T18:04:20.027Z,8.50
2022-12-03T18:07:05.774Z,8.50
2022-12-03T18:09:51.833Z,8.60
2022-12-03T18:12:37.667Z,8.60
2022-12-03T18:15:23.067Z,8.60
2022-12-03T18:18:09.010Z,8.60
2022-12-03T18:20:54.784Z,8.60
2022-12-03T18:23:40.709Z,8.60
2022-12-03T18:26:26.479Z,8.60
2022-12-03T18:29:12.038Z,8.60
2022-12-03T18:31:57.702Z,8.60
2022-12-03T18:34:43.758Z,8.60
2022-12-03T18:37:29.907Z,8.60
2022-12-03T18:40:22.350Z,8.60
2022-12-03T18:43:16.290Z,8.50
2022-12-03T18:46:04.369Z,8.60
2022-12-03T18:48:50.064Z,8.50
2022-12-03T18:51:35.657Z,8.60
2022-12-03T18:54:21.543Z,8.60
2022-12-03T18:57:07.872Z,8.60
2022-12-03T18:59:56.187Z,8.60
2022-12-03T19:05:47.567Z,8.50
2022-12-03T19:08:33.033Z,8.60
2022-12-03T19:11:18.910Z,8.60
2022-12-03T19:14:04.370Z,8.60
2022-12-03T19:16:50.305Z,8.60
2022-12-03T19:19:36.855Z,8.60
2022-12-03T19:22:23.631Z,8.60
2022-12-03T19:25:09.680Z,8.60
2022-12-03T19:27:56.987Z,8.60
2022-12-03T19:30:43.145Z,8.60
2022-12-03T19:33:29.736Z,8.60
2022-12-03T19:36:28.317Z,8.50
2022-12-03T19:39:19.476Z,8.60
2022-12-03T19:42:04.977Z,8.60
2022-12-03T19:44:50.581Z,8.50
2022-12-03T19:47:37.020Z,8.50
2022-12-03T19:50:23.699Z,8.50
2022-12-03T19:53:09.752Z,8.50
2022-12-03T19:56:14.981Z,8.60
2022-12-03T19:59:20.859Z,8.60
2022-12-03T20:02:06.878Z,8.60
2022-12-03T20:04:52.522Z,8.60
2022-12-03T20:07:38.208Z,8.60
2022-12-03T20:10:25.161Z,8.60
2022-12-03T20:13:13.302Z,8.60
2022-12-03T20:16:03.853Z,8.60
2022-12-03T20:18:50.696Z,8.60
2022-12-03T20:21:39.082Z,8.60
2022-12-03T20:24:24.675Z,8.60
2022-12-03T20:27:10.074Z,8.60
2022-12-03T20:29:56.151Z,8.60
2022-12-03T20:32:45.440Z,8.60
2022-12-03T20:35:32.952Z,8.50
2022-12-03T20:38:18.968Z,8.50
2022-12-03T20:41:10.560Z,8.50
2022-12-03T20:43:56.706Z,8.50
2022-12-03T20:46:42.314Z,8.50
2022-12-03T20:49:28.045Z,8.50
2022-12-03T20:52:15.979Z,8.50
2022-12-03T20:55:01.347Z,8.50
2022-12-03T20:57:48.267Z,8.50
2022-12-03T21:00:34.206Z,8.50
2022-12-03T21:03:19.954Z,8.60
2022-12-03T21:06:06.285Z,8.50
2022-12-03T21:08:56.204Z,8.50
2022-12-03T21:11:43.125Z,8.50
2022-12-03T21:14:30.071Z,8.60
2022-12-03T21:17:19.608Z,8.60
2022-12-03T21:20:06.039Z,8.60
2022-12-03T21:22:51.966Z,8.60
2022-12-03T21:25:38.424Z,8.60
2022-12-03T21:28:24.363Z,8.60
2022-12-03T21:31:15.800Z,8.60
2022-12-03T21:34:02.825Z,8.60
2022-12-03T21:36:49.826Z,8.60
2022-12-03T21:39:35.748Z,8.60
2022-12-03T21:42:34.454Z,8.60
2022-12-03T21:45:24.967Z,8.60
2022-12-03T21:48:11.151Z,8.60
2022-12-03T21:51:02.064Z,8.60
2022-12-03T21:53:49.202Z,8.60
2022-12-03T21:56:34.987Z,8.60
2022-12-03T21:59:20.823Z,8.60
2022-12-03T22:02:06.645Z,8.60
2022-12-03T22:04:52.587Z,8.60
2022-12-03T22:07:39.382Z,8.60
2022-12-03T22:10:25.281Z,8.50
2022-12-03T22:13:12.901Z,8.50
2022-12-03T22:15:58.894Z,8.50
2022-12-03T22:18:45.007Z,8.60
2022-12-03T22:21:31.127Z,8.60
2022-12-03T22:24:18.783Z,8.60
2022-12-03T22:27:05.014Z,8.60
2022-12-03T22:29:50.851Z,8.60
2022-12-03T22:32:36.783Z,8.60
2022-12-03T22:35:22.424Z,8.60
2022-12-03T22:38:07.768Z,8.60
2022-12-03T22:40:53.227Z,8.60
2022-12-03T22:43:39.112Z,8.60
2022-12-03T22:46:24.889Z,8.70
2022-12-03T22:49:12.966Z,8.60
2022-12-03T22:51:58.466Z,8.60
2022-12-03T22:54:47.350Z,8.60
2022-12-03T22:57:32.908Z,8.60
2022-12-03T23:00:30.248Z,8.70
2022-12-03T23:03:16.140Z,8.60
2022-12-03T23:06:08.173Z,8.60
2022-12-03T23:08:54.315Z,8.60
2022-12-03T23:11:40.125Z,8.60
2022-12-03T23:14:26.059Z,8.60
2022-12-03T23:17:11.361Z,8.60
2022-12-03T23:19:57.280Z,8.60
2022-12-03T23:22:42.960Z,8.60
2022-12-03T23:25:28.447Z,8.60
2022-12-03T23:28:14.107Z,8.70
2022-12-03T23:30:59.964Z,8.70
2022-12-03T23:33:46.357Z,8.70
2022-12-03T23:36:33.212Z,8.60
2022-12-03T23:39:18.687Z,8.60
2022-12-03T23:42:04.564Z,8.60
2022-12-03T23:44:50.460Z,8.60
2022-12-03T23:47:35.825Z,8.60
2022-12-03T23:50:21.197Z,8.60
2022-12-03T23:53:06.635Z,8.60
2022-12-03T23:55:52.598Z,8.60
2022-12-03T23:58:38.671Z,8.60
